Terminal Aerodrome Forecast
Issued by NWS

Home | Current Version | Previous Version | Text Only | Print | Product List | Glossary On
Versions: 1 2 3 4 5 6 7 8 9 10 11 12 13 14 15 16 17 18 19 20 21 22 23
330
FTUS41 KGYX 121737
TAFAUG
TAF
KAUG 121737Z 1218/1318 28006KT P6SM SCT250
     FM130200 VRB03KT P6SM BKN040 OVC070
     FM130800 03004KT 2SM -SN BKN015 OVC025
     FM131500 35012G18KT 2SM -SN SCT008 OVC015=

USA.gov is the U.S. government's official web portal to all federal, state and local government web resources and services.